createdAt,value
2023-03-24T00:00:52.403Z,4172.6
2023-03-24T00:06:28.082Z,4172.6
2023-03-24T00:12:06.323Z,4172.3
2023-03-24T00:17:42.434Z,4170.9
2023-03-24T00:23:17.800Z,4171.6
2023-03-24T00:28:53.167Z,4170.4
2023-03-24T00:34:40.141Z,4169.2
2023-03-24T00:40:15.606Z,4168.7
2023-03-24T00:46:20.454Z,4169.1
2023-03-24T00:52:03.542Z,4168.6
2023-03-24T00:57:41.033Z,4169.7
2023-03-24T01:03:17.603Z,4166.9
2023-03-24T01:09:00.845Z,4170.1
2023-03-24T01:14:37.399Z,4166.9
2023-03-24T01:20:21.704Z,4165.6
2023-03-24T01:25:57.779Z,4167.2
2023-03-24T01:31:33.437Z,4166.1
2023-03-24T01:37:20.721Z,4167.2
2023-03-24T01:43:05.691Z,4166.1
2023-03-24T01:48:51.693Z,4168.9
2023-03-24T01:54:40.322Z,4165.1
2023-03-24T02:00:27.492Z,4165.1
2023-03-24T02:06:05.656Z,4166.4
2023-03-24T02:11:45.636Z,4164.4
2023-03-24T02:17:40.133Z,4163.4
2023-03-24T02:23:20.082Z,4164.9
2023-03-24T02:28:55.275Z,4165.4
2023-03-24T02:34:33.429Z,4160.4
2023-03-24T02:40:12.727Z,4162.2
2023-03-24T02:45:49.415Z,4161.2
2023-03-24T02:51:26.880Z,4162.7
2023-03-24T02:57:05.818Z,4160.7
2023-03-24T03:02:51.601Z,4160.4
2023-03-24T03:08:29.265Z,4162.2
2023-03-24T03:14:07.367Z,4161.5
2023-03-24T03:20:09.492Z,4162.9
2023-03-24T03:26:04.388Z,4160.5
2023-03-24T03:31:46.793Z,4159
2023-03-24T03:37:22.183Z,4157.7
2023-03-24T03:42:58.994Z,4156.8
2023-03-24T03:48:34.181Z,4161
2023-03-24T03:54:09.520Z,4158
2023-03-24T03:59:45.987Z,4159.4
2023-03-24T04:05:34.911Z,4157.5
2023-03-24T04:11:10.450Z,4155
2023-03-24T04:16:56.524Z,4156.5
2023-03-24T04:22:36.378Z,4159.7
2023-03-24T04:28:12.612Z,4153.5
2023-03-24T04:34:03.879Z,4157.5
2023-03-24T04:39:50.692Z,4158
2023-03-24T04:45:32.206Z,4154.5
2023-03-24T04:51:23.767Z,4155
2023-03-24T04:57:04.275Z,4153.8
2023-03-24T05:02:41.034Z,4153.5
2023-03-24T05:08:17.957Z,4155.2
2023-03-24T05:13:53.152Z,4152.7
2023-03-24T05:19:28.573Z,4151.7
2023-03-24T05:25:05.130Z,4150.8
2023-03-24T05:30:40.644Z,4150.6
2023-03-24T05:36:16.860Z,4150.3
2023-03-24T05:41:52.087Z,4149.1
2023-03-24T05:47:39.658Z,4153.7
2023-03-24T05:53:25.418Z,4149.3
2023-03-24T05:59:09.093Z,4150.8
2023-03-24T06:05:18.965Z,4150.5
2023-03-24T06:10:55.144Z,4148.5
2023-03-24T06:16:31.156Z,4150.6
2023-03-24T06:22:18.576Z,4150
2023-03-24T06:27:54.376Z,4152.3
2023-03-24T06:33:48.652Z,4155.2
2023-03-24T06:39:23.771Z,4157.9
2023-03-24T06:45:07.978Z,4149.6
2023-03-24T06:50:45.770Z,4151
2023-03-24T06:56:51.017Z,4150.1
2023-03-24T07:02:27.127Z,4149.8
2023-03-24T07:08:39.594Z,4149.1
2023-03-24T07:14:15.385Z,4152.8
2023-03-24T07:19:56.512Z,4160.9
2023-03-24T07:25:40.865Z,4157.5
2023-03-24T07:32:01.890Z,4171.6
2023-03-24T07:37:37.706Z,4180.1
2023-03-24T07:43:14.309Z,4177.5
2023-03-24T07:48:55.194Z,4179.5
2023-03-24T07:54:43.979Z,4170.8
2023-03-24T08:00:22.295Z,4180.6
2023-03-24T08:05:57.807Z,4182.3
2023-03-24T08:11:33.128Z,4196
2023-03-24T08:17:09.367Z,4204.6
2023-03-24T08:22:44.655Z,4189.3
2023-03-24T08:28:27.795Z,4175.1
2023-03-24T08:34:05.310Z,4189.8
2023-03-24T08:39:49.215Z,4181.3
2023-03-24T08:45:34.502Z,4181.3
2023-03-24T08:51:13.515Z,4184.2
2023-03-24T08:56:52.224Z,4191.9
2023-03-24T09:02:28.622Z,4185.2
2023-03-24T09:08:06.407Z,4186.2
2023-03-24T09:13:51.353Z,4185.8
2023-03-24T09:19:27.864Z,4180.8
2023-03-24T09:25:12.997Z,4179.8
2023-03-24T09:30:52.061Z,4178.8
2023-03-24T09:36:32.614Z,4184.8
2023-03-24T09:42:13.626Z,4181.3
2023-03-24T09:48:06.089Z,4180.5
2023-03-24T09:53:57.313Z,4179
2023-03-24T09:59:38.079Z,4185.5
2023-03-24T10:05:27.103Z,4187.8
2023-03-24T10:11:27.112Z,4183.3
2023-03-24T10:17:24.735Z,4182.3
2023-03-24T10:23:21.004Z,4182.5
2023-03-24T10:28:56.974Z,4182.8
2023-03-24T10:34:34.753Z,4182.8
2023-03-24T10:40:10.952Z,4188
2023-03-24T10:45:48.147Z,4184.5
2023-03-24T10:51:24.096Z,4188.8
2023-03-24T10:57:00.889Z,4189.7
2023-03-24T11:02:49.744Z,4186.8
2023-03-24T11:08:25.110Z,4186.3
2023-03-24T11:14:14.179Z,4187.7
2023-03-24T11:20:13.926Z,4185.7
2023-03-24T11:26:27.666Z,4183.8
2023-03-24T11:32:22.203Z,4187.2
2023-03-24T11:38:01.264Z,4189.3
2023-03-24T11:43:42.043Z,4184.5
2023-03-24T11:49:18.180Z,4185.3
2023-03-24T11:54:54.019Z,4191
2023-03-24T12:00:36.851Z,4194.4
2023-03-24T12:06:14.128Z,4208.9
2023-03-24T12:11:51.469Z,4207.6
2023-03-24T12:17:27.610Z,4209.6
2023-03-24T12:23:03.326Z,4205.6
2023-03-24T12:28:48.584Z,4202.6
2023-03-24T12:34:24.307Z,4203.9
2023-03-24T12:39:59.763Z,4196.4
2023-03-24T12:46:04.921Z,4191.9
2023-03-24T12:51:57.436Z,4188.8
2023-03-24T12:57:41.542Z,4186.3
2023-03-24T13:03:18.909Z,4186.2
2023-03-24T13:08:54.956Z,4194.9
2023-03-24T13:14:39.581Z,4189.7
2023-03-24T13:20:15.331Z,4195.7
2023-03-24T13:25:51.956Z,4190.2
2023-03-24T13:31:28.497Z,4201.4
2023-03-24T13:37:03.553Z,4214.8
2023-03-24T13:42:40.243Z,4210.1
2023-03-24T13:48:24.134Z,4201.9
2023-03-24T13:54:15.193Z,4218.2
2023-03-24T13:59:50.218Z,4191
2023-03-24T14:05:39.201Z,4192
2023-03-24T14:11:14.184Z,4190.7
2023-03-24T14:16:50.388Z,4201.9
2023-03-24T14:22:25.751Z,4191.2
2023-03-24T14:28:16.128Z,4201.1
2023-03-24T14:33:51.517Z,4221.7
2023-03-24T14:39:31.441Z,4218.7
2023-03-24T14:45:14.730Z,4219.3
2023-03-24T14:50:52.089Z,4222.8
2023-03-24T14:56:28.930Z,4222
2023-03-24T15:02:06.132Z,4209.4
2023-03-24T15:08:02.315Z,4229.9
2023-03-24T15:13:49.922Z,4219.2
2023-03-24T15:19:41.456Z,4219.5
2023-03-24T15:25:20.617Z,4218.7
2023-03-24T15:31:18.054Z,4214
2023-03-24T15:37:02.838Z,4211.6
2023-03-24T15:42:41.102Z,4213
2023-03-24T15:48:22.168Z,4207.1
2023-03-24T15:53:59.283Z,4215.1
2023-03-24T15:59:46.675Z,4205.1
2023-03-24T16:05:50.102Z,4203.7
2023-03-24T16:11:25.864Z,4206.8
2023-03-24T16:17:11.892Z,4194.5
2023-03-24T16:22:54.939Z,4192.7
2023-03-24T16:28:35.304Z,4193.4
2023-03-24T16:34:11.089Z,4191.9
2023-03-24T16:40:00.013Z,4190.9
2023-03-24T16:46:20.775Z,4192.9
2023-03-24T16:52:09.594Z,4188.5
2023-03-24T16:57:56.974Z,4189.8
2023-03-24T17:03:33.918Z,4193.5
2023-03-24T17:09:13.739Z,4191.2
2023-03-24T17:14:49.579Z,4184.3
2023-03-24T17:20:28.732Z,4188.2
2023-03-24T17:26:07.284Z,4180
2023-03-24T17:31:45.054Z,4180.8
2023-03-24T17:37:20.548Z,4182.3
2023-03-24T17:43:05.967Z,4180.3
2023-03-24T17:48:49.900Z,4179
2023-03-24T17:54:26.576Z,4178
2023-03-24T18:00:13.793Z,4178.5
2023-03-24T18:06:17.143Z,4180
2023-03-24T18:11:54.165Z,4179.3
2023-03-24T18:17:29.900Z,4176.9
2023-03-24T18:23:08.233Z,4175.4
2023-03-24T18:28:54.860Z,4176.1
2023-03-24T18:34:30.367Z,4174.9
2023-03-24T18:40:14.838Z,4174.4
2023-03-24T18:45:56.437Z,4171.1
2023-03-24T18:51:36.680Z,4176.8
2023-03-24T18:57:15.343Z,4173.6
2023-03-24T19:02:52.752Z,4172.4
2023-03-24T19:08:30.350Z,4173.8
2023-03-24T19:14:16.805Z,4172.4
2023-03-24T19:20:11.137Z,4173.8
2023-03-24T19:26:14.338Z,4172.8
2023-03-24T19:31:55.053Z,4172.3
2023-03-24T19:37:31.477Z,4171.9
2023-03-24T19:43:09.527Z,4172.8
2023-03-24T19:48:45.411Z,4171.4
2023-03-24T19:54:23.473Z,4170.6
2023-03-24T20:00:02.228Z,4170.6
2023-03-24T20:05:54.277Z,4169.6
2023-03-24T20:11:32.896Z,4169.7
2023-03-24T20:17:17.145Z,4167.2
2023-03-24T20:23:02.746Z,4169.4
2023-03-24T20:28:48.991Z,4168.6
2023-03-24T20:34:30.582Z,4169.2
